createdAt,value
2018-02-11T00:02:10.623Z,16.07
2018-02-11T00:04:38.823Z,14.03
2018-02-11T00:07:07.030Z,17.17
2018-02-11T00:09:34.457Z,12.00
2018-02-11T00:12:01.908Z,16.10
2018-02-11T00:14:29.350Z,19.53
2018-02-11T00:16:56.795Z,13.30
2018-02-11T00:19:24.232Z,14.43
2018-02-11T00:21:51.676Z,14.83
2018-02-11T00:24:19.103Z,13.33
2018-02-11T00:26:46.543Z,15.03
2018-02-11T00:29:13.970Z,15.30
2018-02-11T00:31:41.410Z,16.27
2018-02-11T00:34:09.606Z,19.33
2018-02-11T00:36:37.810Z,15.63
2018-02-11T00:39:06.010Z,15.87
2018-02-11T00:41:34.267Z,15.63
2018-02-11T00:44:01.698Z,15.63
2018-02-11T00:46:29.198Z,16.83
2018-02-11T00:48:56.644Z,17.17
2018-02-11T00:51:24.847Z,21.73
2018-02-11T00:53:53.054Z,15.40
2018-02-11T00:56:21.260Z,27.40
2018-02-11T00:58:49.468Z,50.43
2018-02-11T01:01:16.899Z,51.93
2018-02-11T01:03:44.340Z,57.37
2018-02-11T01:06:11.822Z,46.13
2018-02-11T01:08:39.267Z,39.23
2018-02-11T01:11:07.471Z,23.37
2018-02-11T01:13:35.674Z,31.20
2018-02-11T01:16:03.115Z,28.43
2018-02-11T01:18:30.559Z,33.60
2018-02-11T01:20:57.986Z,25.10
2018-02-11T01:23:25.436Z,19.97
2018-02-11T01:25:52.875Z,23.77
2018-02-11T01:28:20.319Z,26.63
2018-02-11T01:30:47.755Z,14.33
2018-02-11T01:33:15.205Z,14.00
2018-02-11T01:35:42.639Z,23.23
2018-02-11T01:38:10.075Z,28.63
2018-02-11T01:40:37.511Z,19.60
2018-02-11T01:43:04.959Z,15.43
2018-02-11T01:45:32.390Z,18.50
2018-02-11T01:47:59.827Z,18.23
2018-02-11T01:50:27.259Z,12.10
2018-02-11T01:52:55.454Z,19.00
2018-02-11T01:55:22.890Z,22.07
2018-02-11T01:57:50.318Z,18.60
2018-02-11T02:00:18.582Z,19.53
2018-02-11T02:02:46.017Z,12.10
2018-02-11T02:05:14.218Z,17.13
2018-02-11T02:07:41.650Z,15.10
2018-02-11T02:10:09.082Z,13.43
2018-02-11T02:12:36.506Z,11.10
2018-02-11T02:15:04.731Z,12.27
2018-02-11T02:17:32.167Z,11.50
2018-02-11T02:19:59.608Z,12.50
2018-02-11T02:22:27.812Z,14.10
2018-02-11T02:24:55.255Z,10.87
2018-02-11T02:27:22.686Z,16.13
2018-02-11T02:29:50.134Z,13.97
2018-02-11T02:32:17.561Z,12.70
2018-02-11T02:34:45.004Z,13.27
2018-02-11T02:37:13.229Z,12.00
2018-02-11T02:39:40.666Z,12.07
2018-02-11T02:42:08.094Z,13.47
2018-02-11T02:44:35.534Z,12.87
2018-02-11T02:47:02.971Z,9.70
2018-02-11T02:49:30.400Z,10.63
2018-02-11T02:51:58.605Z,11.00
2018-02-11T02:54:26.799Z,12.37
2018-02-11T02:56:54.993Z,11.53
2018-02-11T02:59:23.198Z,11.60
2018-02-11T03:01:51.399Z,12.97
2018-02-11T03:04:19.598Z,12.93
2018-02-11T03:06:47.798Z,13.20
2018-02-11T03:09:15.994Z,11.90
2018-02-11T03:11:44.235Z,10.30
2018-02-11T03:14:11.658Z,9.43
2018-02-11T03:16:39.095Z,14.43
2018-02-11T03:19:06.526Z,12.40
2018-02-11T03:21:34.730Z,13.17
2018-02-11T03:24:02.931Z,12.93
2018-02-11T03:26:31.138Z,15.37
2018-02-11T03:28:58.562Z,15.57
2018-02-11T03:31:25.998Z,11.53
2018-02-11T03:33:53.427Z,12.37
2018-02-11T03:36:20.863Z,10.10
2018-02-11T03:38:48.290Z,12.67
2018-02-11T03:41:15.775Z,12.20
2018-02-11T03:43:43.202Z,13.33
2018-02-11T03:46:10.698Z,13.47
2018-02-11T03:48:38.122Z,15.40
2018-02-11T03:51:05.550Z,16.00
2018-02-11T03:53:32.987Z,17.33
2018-02-11T03:56:00.422Z,14.67
2018-02-11T03:58:27.858Z,11.33
2018-02-11T04:00:55.294Z,15.13
2018-02-11T04:03:22.735Z,16.27
2018-02-11T04:05:50.930Z,16.03
2018-02-11T04:08:19.135Z,13.50
2018-02-11T04:10:47.330Z,13.60
2018-02-11T04:13:15.535Z,16.20
2018-02-11T04:15:43.670Z,14.57
2018-02-11T04:18:11.107Z,14.70
2018-02-11T04:20:39.302Z,15.83
2018-02-11T04:23:07.506Z,11.60
2018-02-11T04:25:34.934Z,13.30
2018-02-11T04:28:02.374Z,14.23
2018-02-11T04:30:29.807Z,13.40
2018-02-11T04:32:57.246Z,14.83
2018-02-11T04:35:24.679Z,15.53
2018-02-11T04:37:52.126Z,14.40
2018-02-11T04:40:19.567Z,12.27
2018-02-11T04:42:47.767Z,16.70
2018-02-11T04:45:15.205Z,19.07
2018-02-11T04:47:42.663Z,14.67
2018-02-11T04:50:10.134Z,13.37
2018-02-11T04:52:37.567Z,13.57
2018-02-11T04:55:05.779Z,15.00
2018-02-11T04:57:33.970Z,12.93
2018-02-11T05:00:02.170Z,16.73
2018-02-11T05:02:30.375Z,14.73
2018-02-11T05:04:58.574Z,13.60
2018-02-11T05:07:26.778Z,14.40
2018-02-11T05:09:54.222Z,18.07
2018-02-11T05:12:21.655Z,13.70
2018-02-11T05:14:49.094Z,15.80
2018-02-11T05:17:16.524Z,14.90
2018-02-11T05:19:43.970Z,16.60
2018-02-11T05:22:12.179Z,15.40
2018-02-11T05:24:39.614Z,13.30
2018-02-11T05:27:07.048Z,14.67
2018-02-11T05:29:34.482Z,12.03
2018-02-11T05:32:01.915Z,12.90
2018-02-11T05:34:29.351Z,11.13
2018-02-11T05:36:56.778Z,12.43
2018-02-11T05:39:24.214Z,13.73
2018-02-11T05:41:51.646Z,14.10
2018-02-11T05:44:19.078Z,13.03
2018-02-11T05:46:47.266Z,12.63
2018-02-11T05:49:14.726Z,14.57
2018-02-11T05:51:42.154Z,14.40
2018-02-11T05:54:09.582Z,14.63
2018-02-11T05:56:37.022Z,14.30
2018-02-11T05:59:04.443Z,13.03
2018-02-11T06:01:31.879Z,11.00
2018-02-11T06:03:59.311Z,11.53
2018-02-11T06:06:26.746Z,12.80
2018-02-11T06:08:54.179Z,12.17
2018-02-11T06:11:21.615Z,12.50
2018-02-11T06:13:49.106Z,15.20
2018-02-11T06:16:16.547Z,15.23
2018-02-11T06:18:44.743Z,12.87
2018-02-11T06:21:12.938Z,14.20
2018-02-11T06:23:41.138Z,13.93
2018-02-11T06:26:09.346Z,12.63
2018-02-11T06:28:36.778Z,13.00
2018-02-11T06:31:04.223Z,15.57
2018-02-11T06:33:31.663Z,16.17
2018-02-11T06:35:59.101Z,15.38
2018-02-11T06:38:26.538Z,14.10
2018-02-11T06:40:54.754Z,14.38
2018-02-11T06:43:22.189Z,12.25
2018-02-11T06:45:49.642Z,11.70
2018-02-11T06:48:17.088Z,11.30
2018-02-11T06:50:45.283Z,11.48
2018-02-11T06:53:13.526Z,11.12
2018-02-11T06:55:40.947Z,11.30
2018-02-11T06:58:08.391Z,12.00
2018-02-11T07:00:36.590Z,11.57
2018-02-11T07:03:04.026Z,10.80
2018-02-11T07:05:31.498Z,11.75
2018-02-11T07:07:58.902Z,9.98
2018-02-11T07:10:26.329Z,10.10
2018-02-11T07:12:53.775Z,9.82
2018-02-11T07:15:21.203Z,10.88
2018-02-11T07:17:48.635Z,10.17
2018-02-11T07:20:16.075Z,9.82
2018-02-11T07:22:44.274Z,9.18
2018-02-11T07:25:12.483Z,9.52
2018-02-11T07:27:39.917Z,9.73
2018-02-11T07:30:07.358Z,10.25
2018-02-11T07:32:34.794Z,9.93
2018-02-11T07:35:02.217Z,9.27
2018-02-11T07:37:29.663Z,11.60
2018-02-11T07:39:57.094Z,10.73
2018-02-11T07:42:24.543Z,10.80
2018-02-11T07:44:52.895Z,12.30
2018-02-11T07:47:20.341Z,12.05
2018-02-11T07:49:47.774Z,11.35
2018-02-11T07:52:15.202Z,11.57
2018-02-11T07:54:42.646Z,11.60
2018-02-11T07:57:10.842Z,13.32
2018-02-11T07:59:38.278Z,10.20
2018-02-11T08:02:05.707Z,18.40
2018-02-11T08:04:33.918Z,10.80
2018-02-11T08:07:02.110Z,13.30
2018-02-11T08:09:30.310Z,13.97
2018-02-11T08:11:58.513Z,13.63
2018-02-11T08:14:26.715Z,10.93
2018-02-11T08:16:54.916Z,13.60
2018-02-11T08:19:23.118Z,13.60
2018-02-11T08:21:50.550Z,12.77
2018-02-11T08:24:17.990Z,20.00
2018-02-11T08:26:45.447Z,14.80
2018-02-11T08:29:12.874Z,17.23
2018-02-11T08:31:40.308Z,15.93
2018-02-11T08:34:07.751Z,16.73
2018-02-11T08:36:35.194Z,15.20
2018-02-11T08:39:02.634Z,14.50
2018-02-11T08:41:30.082Z,15.57
2018-02-11T08:43:57.526Z,14.27
2018-02-11T08:46:25.735Z,16.17
2018-02-11T08:48:53.965Z,18.30
2018-02-11T08:51:21.394Z,17.73
2018-02-11T08:53:48.835Z,16.90
2018-02-11T08:56:16.284Z,16.30
2018-02-11T08:58:43.723Z,15.30
2018-02-11T09:01:11.163Z,13.90
2018-02-11T09:03:38.591Z,15.70
2018-02-11T09:06:06.047Z,14.95
2018-02-11T09:08:33.483Z,18.23
2018-02-11T09:11:00.924Z,18.50
2018-02-11T09:13:28.388Z,17.80
2018-02-11T09:15:55.838Z,19.37
2018-02-11T09:18:23.272Z,15.53
2018-02-11T09:20:50.716Z,13.23
2018-02-11T09:23:18.142Z,15.00
2018-02-11T09:25:45.579Z,18.03
2018-02-11T09:28:13.012Z,21.43
2018-02-11T09:30:41.214Z,19.43
2018-02-11T09:33:09.423Z,14.57
2018-02-11T09:35:36.858Z,15.50
2018-02-11T09:38:04.292Z,12.37
2018-02-11T09:40:31.736Z,13.57
2018-02-11T09:42:59.172Z,16.27
2018-02-11T09:45:26.606Z,14.57
2018-02-11T09:47:54.802Z,13.80
2018-02-11T09:50:23.007Z,14.47
2018-02-11T09:52:51.202Z,13.87
2018-02-11T09:55:19.405Z,14.90
2018-02-11T09:57:47.608Z,12.77
2018-02-11T10:00:16.506Z,16.10
2018-02-11T10:02:44.704Z,16.33
2018-02-11T10:05:12.916Z,14.57
2018-02-11T10:07:41.110Z,12.83
2018-02-11T10:10:08.547Z,13.80
2018-02-11T10:12:35.983Z,14.10
2018-02-11T10:15:03.414Z,13.43
2018-02-11T10:17:30.850Z,15.07
2018-02-11T10:19:58.282Z,13.53
2018-02-11T10:22:25.719Z,12.43
2018-02-11T10:24:53.152Z,14.30
2018-02-11T10:27:20.594Z,11.60
2018-02-11T10:29:48.018Z,12.13
2018-02-11T10:32:15.455Z,12.03
2018-02-11T10:34:42.892Z,10.30
2018-02-11T10:37:11.095Z,10.03
2018-02-11T10:39:38.526Z,11.40
2018-02-11T10:42:05.963Z,14.30
2018-02-11T10:44:33.390Z,12.20
2018-02-11T10:47:00.832Z,12.27
2018-02-11T10:49:28.263Z,12.20
2018-02-11T10:51:55.699Z,10.27
2018-02-11T10:54:23.152Z,10.80
2018-02-11T10:56:50.558Z,13.40
2018-02-11T10:59:17.989Z,11.10
2018-02-11T11:01:45.422Z,11.40
2018-02-11T11:04:12.851Z,11.97
2018-02-11T11:06:40.293Z,10.80
2018-02-11T11:09:07.722Z,17.47
2018-02-11T11:11:35.926Z,11.27
2018-02-11T11:14:04.146Z,13.87
2018-02-11T11:16:31.581Z,12.50
2018-02-11T11:18:59.014Z,10.63
2018-02-11T11:21:26.446Z,11.40
2018-02-11T11:23:53.875Z,10.20
2018-02-11T11:26:21.311Z,11.23
2018-02-11T11:28:48.751Z,10.80
2018-02-11T11:31:16.947Z,9.30
2018-02-11T11:33:44.367Z,8.90
2018-02-11T11:36:11.798Z,11.67
2018-02-11T11:38:39.222Z,22.20
2018-02-11T11:41:06.651Z,9.43
2018-02-11T11:43:34.079Z,10.23
2018-02-11T11:46:01.510Z,9.67
2018-02-11T11:48:28.947Z,13.13
2018-02-11T11:50:56.382Z,10.57
2018-02-11T11:53:23.814Z,10.50
2018-02-11T11:55:51.287Z,11.60
2018-02-11T11:58:18.714Z,13.33
2018-02-11T12:00:46.140Z,15.67
2018-02-11T12:03:13.573Z,13.33
2018-02-11T12:05:40.998Z,10.90
2018-02-11T12:08:08.433Z,13.00
2018-02-11T12:10:35.858Z,9.73
2018-02-11T12:13:03.290Z,10.00
2018-02-11T12:15:30.725Z,16.27
2018-02-11T12:17:58.150Z,12.93
2018-02-11T12:20:25.574Z,13.33
2018-02-11T12:22:53.011Z,11.57
2018-02-11T12:25:20.438Z,13.10
2018-02-11T12:27:47.875Z,15.50
2018-02-11T12:30:15.300Z,11.13
2018-02-11T12:32:42.734Z,16.77
2018-02-11T12:35:10.166Z,11.40
2018-02-11T12:37:37.611Z,9.30
2018-02-11T12:40:05.023Z,12.50
2018-02-11T12:42:32.459Z,21.07
2018-02-11T12:44:59.882Z,15.30
2018-02-11T12:47:27.315Z,11.87
2018-02-11T12:49:54.738Z,10.67
2018-02-11T12:52:22.175Z,10.90
2018-02-11T12:54:49.603Z,11.13
2018-02-11T12:57:17.038Z,14.03
2018-02-11T12:59:44.466Z,18.13
2018-02-11T13:02:11.903Z,10.70
2018-02-11T13:04:39.330Z,9.13
2018-02-11T13:07:06.771Z,11.20
2018-02-11T13:09:34.198Z,11.73
2018-02-11T13:12:02.394Z,9.17
2018-02-11T13:14:30.582Z,9.73
2018-02-11T13:16:58.014Z,11.73
2018-02-11T13:19:25.446Z,9.33
2018-02-11T13:21:52.876Z,9.67
2018-02-11T13:24:20.299Z,8.10
2018-02-11T13:26:47.735Z,11.03
2018-02-11T13:29:15.154Z,9.80
2018-02-11T13:31:42.591Z,14.57
2018-02-11T13:34:10.019Z,12.23
2018-02-11T13:36:37.457Z,11.73
2018-02-11T13:39:04.882Z,11.70
2018-02-11T13:41:32.358Z,10.20
2018-02-11T13:43:59.791Z,12.77
2018-02-11T13:46:27.213Z,12.10
2018-02-11T13:48:54.654Z,12.97
2018-02-11T13:51:22.089Z,12.97
2018-02-11T13:53:50.347Z,15.57
2018-02-11T13:56:17.770Z,12.40
2018-02-11T13:58:45.974Z,11.80
2018-02-11T14:01:14.171Z,12.23
2018-02-11T14:03:42.370Z,14.80
2018-02-11T14:06:10.617Z,15.17
2018-02-11T14:08:38.046Z,14.33
2018-02-11T14:11:06.242Z,11.83
2018-02-11T14:13:34.446Z,13.27
2018-02-11T14:16:02.639Z,10.10
2018-02-11T14:18:30.070Z,19.20
2018-02-11T14:20:57.494Z,12.50
2018-02-11T14:23:24.934Z,11.47
2018-02-11T14:25:52.357Z,10.40
2018-02-11T14:28:20.566Z,14.73
2018-02-11T14:30:48.757Z,11.60
2018-02-11T14:33:16.958Z,12.27
2018-02-11T14:35:45.159Z,15.03
2018-02-11T14:38:13.365Z,8.60
2018-02-11T14:40:41.562Z,11.53
2018-02-11T14:43:08.999Z,11.00
2018-02-11T14:45:36.422Z,15.17
2018-02-11T14:48:03.864Z,13.10
2018-02-11T14:50:31.291Z,12.07
2018-02-11T14:52:58.727Z,13.17
2018-02-11T14:55:26.156Z,11.60
2018-02-11T14:57:53.591Z,10.40
2018-02-11T15:00:21.014Z,13.83
2018-02-11T15:02:48.450Z,17.33
2018-02-11T15:05:15.878Z,14.23
2018-02-11T15:07:43.318Z,13.77
2018-02-11T15:10:10.762Z,23.57
2018-02-11T15:12:38.198Z,12.67
2018-02-11T15:15:06.402Z,10.07
2018-02-11T15:17:34.606Z,11.43
2018-02-11T15:20:02.795Z,10.10
2018-02-11T15:22:30.995Z,13.07
2018-02-11T15:24:59.193Z,16.13
2018-02-11T15:27:27.395Z,20.40
2018-02-11T15:29:55.595Z,16.90
2018-02-11T15:32:23.806Z,17.40
2018-02-11T15:34:51.238Z,16.10
2018-02-11T15:37:18.664Z,14.63
2018-02-11T15:39:46.107Z,21.90
2018-02-11T15:42:13.530Z,10.87
2018-02-11T15:44:41.005Z,13.20
2018-02-11T15:47:08.391Z,10.87
2018-02-11T15:49:35.826Z,10.80
2018-02-11T15:52:03.259Z,11.63
2018-02-11T15:54:30.690Z,12.17
2018-02-11T15:56:58.126Z,13.63
2018-02-11T15:59:25.558Z,10.33
2018-02-11T16:01:53.754Z,9.80
2018-02-11T16:04:21.959Z,8.80
2018-02-11T16:06:50.170Z,16.10
2018-02-11T16:09:17.609Z,13.60
2018-02-11T16:11:45.038Z,27.03
2018-02-11T16:14:12.474Z,16.80
2018-02-11T16:16:39.906Z,16.30
2018-02-11T16:19:07.335Z,14.47
2018-02-11T16:21:34.758Z,8.13
2018-02-11T16:24:02.213Z,8.17
2018-02-11T16:26:29.710Z,16.67
2018-02-11T16:28:57.886Z,13.67
2018-02-11T16:31:25.314Z,13.00
2018-02-11T16:33:52.750Z,16.10
2018-02-11T16:36:20.949Z,20.33
2018-02-11T16:38:49.154Z,15.97
2018-02-11T16:41:17.346Z,13.03
2018-02-11T16:43:45.550Z,16.07
2018-02-11T16:46:13.754Z,28.10
2018-02-11T16:48:41.967Z,24.10
2018-02-11T16:51:09.383Z,18.47
2018-02-11T16:53:36.832Z,18.13
2018-02-11T16:56:04.266Z,18.10
2018-02-11T16:58:31.702Z,10.80
2018-02-11T17:00:59.899Z,10.20
2018-02-11T17:03:28.137Z,14.90
2018-02-11T17:05:55.533Z,11.53
2018-02-11T17:08:22.970Z,11.57
2018-02-11T17:10:50.403Z,9.53
2018-02-11T17:13:17.839Z,13.10
2018-02-11T17:15:45.267Z,16.67
2018-02-11T17:18:12.707Z,15.53
2018-02-11T17:20:40.138Z,22.07
2018-02-11T17:23:07.576Z,11.20
2018-02-11T17:25:35.770Z,12.10
2018-02-11T17:28:03.210Z,17.13
2018-02-11T17:30:31.422Z,16.00
2018-02-11T17:32:59.620Z,11.03
2018-02-11T17:35:27.115Z,19.70
2018-02-11T17:37:54.622Z,11.27
2018-02-11T17:40:22.055Z,13.53
2018-02-11T17:42:49.482Z,12.80
2018-02-11T17:45:16.951Z,21.90
2018-02-11T17:47:44.382Z,21.03
2018-02-11T17:50:11.819Z,14.47
2018-02-11T17:52:39.246Z,15.50
2018-02-11T17:55:06.693Z,14.60
2018-02-11T17:57:34.123Z,13.73
2018-02-11T18:00:02.330Z,13.30
2018-02-11T18:02:30.526Z,18.90
2018-02-11T18:04:58.735Z,15.03
2018-02-11T18:07:26.939Z,19.53
2018-02-11T18:09:54.379Z,15.13
2018-02-11T18:12:21.807Z,16.20
2018-02-11T18:14:49.242Z,14.53
2018-02-11T18:17:16.683Z,21.17
2018-02-11T18:19:44.139Z,15.70
2018-02-11T18:22:12.352Z,17.90
2018-02-11T18:24:39.777Z,15.10
2018-02-11T18:27:07.218Z,15.43
2018-02-11T18:29:34.646Z,16.33
2018-02-11T18:32:02.110Z,17.43
2018-02-11T18:34:29.543Z,14.87
2018-02-11T18:36:56.987Z,19.60
2018-02-11T18:39:24.415Z,14.73
2018-02-11T18:41:51.859Z,15.20
2018-02-11T18:44:20.058Z,16.70
2018-02-11T18:46:48.272Z,16.63
2018-02-11T18:49:16.462Z,23.40
2018-02-11T18:51:44.667Z,14.60
2018-02-11T18:54:12.872Z,32.43
2018-02-11T18:56:41.072Z,34.00
2018-02-11T18:59:08.512Z,48.37
2018-02-11T19:01:35.947Z,29.47
2018-02-11T19:04:03.383Z,30.37
2018-02-11T19:06:30.823Z,21.03
2018-02-11T19:08:58.267Z,22.07
2018-02-11T19:11:26.467Z,21.07
2018-02-11T19:13:54.675Z,14.50
2018-02-11T19:16:22.104Z,15.13
2018-02-11T19:18:49.543Z,15.00
2018-02-11T19:21:16.978Z,12.50
2018-02-11T19:23:44.415Z,12.07
2018-02-11T19:26:11.848Z,14.57
2018-02-11T19:28:40.058Z,13.17
2018-02-11T19:31:08.258Z,13.53
2018-02-11T19:33:36.467Z,11.87
2018-02-11T19:36:03.899Z,13.67
2018-02-11T19:38:32.846Z,12.63
2018-02-11T19:41:01.055Z,13.30
2018-02-11T19:43:29.254Z,11.87
2018-02-11T19:45:56.687Z,11.97
2018-02-11T19:48:24.127Z,12.37
2018-02-11T19:50:51.562Z,15.97
2018-02-11T19:53:19.002Z,15.50
2018-02-11T19:55:46.431Z,13.37
2018-02-11T19:58:13.870Z,13.50
2018-02-11T20:00:41.302Z,13.67
2018-02-11T20:03:09.507Z,18.67
2018-02-11T20:05:37.708Z,20.17
2018-02-11T20:08:05.923Z,16.00
2018-02-11T20:10:33.353Z,17.40
2018-02-11T20:13:00.790Z,18.37
2018-02-11T20:15:28.222Z,17.30
2018-02-11T20:17:55.664Z,24.40
2018-02-11T20:20:23.103Z,22.30
2018-02-11T20:22:51.308Z,22.43
2018-02-11T20:25:19.515Z,30.77
2018-02-11T20:27:46.947Z,15.53
2018-02-11T20:30:14.773Z,18.97
2018-02-11T20:32:42.967Z,18.27
2018-02-11T20:35:10.395Z,17.07
2018-02-11T20:37:37.825Z,18.90
2018-02-11T20:40:05.271Z,16.60
2018-02-11T20:42:32.698Z,19.70
2018-02-11T20:45:00.135Z,20.10
2018-02-11T20:47:27.567Z,21.23
2018-02-11T20:49:55.006Z,24.50
2018-02-11T20:52:22.439Z,24.40
2018-02-11T20:54:50.643Z,22.10
2018-02-11T20:57:18.842Z,24.30
2018-02-11T20:59:47.055Z,20.90
2018-02-11T21:02:14.488Z,22.67
2018-02-11T21:04:41.926Z,22.87
2018-02-11T21:07:09.358Z,20.73
2018-02-11T21:09:36.800Z,18.50
2018-02-11T21:12:04.230Z,18.40
2018-02-11T21:14:32.441Z,18.83
2018-02-11T21:17:00.639Z,22.57
2018-02-11T21:19:28.082Z,22.83
2018-02-11T21:21:55.514Z,23.93
2018-02-11T21:24:22.942Z,22.97
2018-02-11T21:26:50.378Z,23.07
2018-02-11T21:29:17.822Z,19.13
2018-02-11T21:31:45.263Z,22.63
2018-02-11T21:34:12.694Z,24.70
2018-02-11T21:36:40.903Z,27.80
2018-02-11T21:39:09.094Z,22.33
2018-02-11T21:41:37.304Z,23.70
2018-02-11T21:44:05.499Z,22.07
2018-02-11T21:46:32.942Z,19.77
2018-02-11T21:49:00.375Z,19.20
2018-02-11T21:51:27.810Z,18.23
2018-02-11T21:53:55.243Z,20.00
2018-02-11T21:56:22.679Z,20.60
2018-02-11T21:58:50.111Z,21.37
2018-02-11T22:01:17.601Z,21.43
2018-02-11T22:03:45.759Z,22.83
2018-02-11T22:06:13.954Z,29.00
2018-02-11T22:08:42.159Z,29.87
2018-02-11T22:11:10.367Z,29.23
2018-02-11T22:13:37.831Z,25.50
2018-02-11T22:16:06.030Z,32.80
2018-02-11T22:18:33.463Z,22.23
2018-02-11T22:21:00.902Z,21.87
2018-02-11T22:23:28.335Z,22.10
2018-02-11T22:25:55.773Z,20.60
2018-02-11T22:28:23.206Z,22.67
2018-02-11T22:30:50.638Z,24.13
2018-02-11T22:33:18.082Z,23.63
2018-02-11T22:35:46.282Z,19.27
2018-02-11T22:38:14.482Z,26.03
2018-02-11T22:40:42.682Z,29.97
2018-02-11T22:43:10.891Z,24.57
2018-02-11T22:45:38.334Z,23.63
2018-02-11T22:48:05.770Z,22.70
2018-02-11T22:50:33.215Z,23.50
2018-02-11T22:53:00.649Z,20.10
2018-02-11T22:55:28.082Z,21.10
2018-02-11T22:57:56.283Z,19.83
2018-02-11T23:00:24.483Z,20.80
2018-02-11T23:02:52.691Z,21.63
2018-02-11T23:05:20.122Z,18.37
2018-02-11T23:07:47.558Z,20.67
2018-02-11T23:10:14.989Z,21.77
2018-02-11T23:12:42.426Z,18.70
2018-02-11T23:15:09.859Z,19.80
2018-02-11T23:17:37.289Z,15.47
2018-02-11T23:20:04.730Z,19.40
2018-02-11T23:22:32.926Z,18.97
2018-02-11T23:25:01.134Z,17.73
2018-02-11T23:27:29.329Z,21.27
2018-02-11T23:29:57.536Z,18.80
2018-02-11T23:32:25.735Z,19.00
2018-02-11T23:34:53.943Z,15.70
2018-02-11T23:37:21.382Z,16.93
2018-02-11T23:39:48.818Z,17.10
2018-02-11T23:42:16.245Z,18.43
2018-02-11T23:44:43.686Z,19.43
2018-02-11T23:47:11.122Z,15.83
2018-02-11T23:49:39.331Z,15.37
2018-02-11T23:52:07.523Z,14.80
2018-02-11T23:54:35.726Z,18.40
2018-02-11T23:57:03.922Z,12.27
2018-02-11T23:59:32.122Z,11.47
